Tholey, Germany

5:41 AM CEST on April 01, 2015 (GMT +0200)
Wemmetsweiler | | Change Station
CLOSE
Current Station
Personal Weather Station
Location: Merchweiler, Saarland
Elevation: 1083 ft
Nearby Weather Stations

Elev 1083 ft 49.37 °N, 7.09 °E | Updated 4 minutes ago

Mostly Cloudy
Mostly Cloudy
37.9 °F
Feels Like 33 °F
N
6.0
Wind Variable Wind from WSW
Gusts 20.0 mph

Today
High -- | Low -- °F
--% Chance of Precip.
Yesterday
High -- | Low -- °F
Precip. -- in
7:09 AM 8:02 PM
Waxing Gibbous, 90% visible
Pressure 30.01 in
Visibility 6.2 miles
Clouds Few 1900 ft
Scattered Clouds 3000 ft
Mostly Cloudy 12000 ft
Windchill 33 °F
Dew Point 33 °F
Humidity 82%
Rainfall 0.03 in
Snow Depth Not available.
UV 0.0 out of 12
Pollen Not available.
Air Quality Not available.
Flu Activity Not available.
METAR EDDR 010320Z 26014KT 9999 FEW019 SCT030 BKN120 03/01 Q1016

More Conditions Fewer Conditions

Pressure 30.01 in
Visibility 6.2 miles
Clouds Few 1900 ft
Scattered Clouds 3000 ft
Mostly Cloudy 12000 ft
Windchill 33 °F
Dew Point 33 °F
Humidity 82%
Rainfall 0.03 in
Snow Depth Not available.
UV 0.0 out of 12
Pollen Not available.
Air Quality Not available.
Flu Activity Not available.
METAR EDDR 010320Z 26014KT 9999 FEW019 SCT030 BKN120 03/01 Q1016

More Conditions Fewer Conditions

10-Day Weather Forecast

Almanac

Astronomy

Apr. 01, 2015 Rise Set
Actual Time
Civil Twilight
Nautical Twilight
Astronomical Twilight
Moon
Length of Visible Light
Length of Day
Tomorrow will be .
, % of the Moon is Illuminated

Today's Extremes

Country Highs Country Lows

Community

WunderPhotos

Upload Photos

1,809,900 photos uploaded!

WunderBlogs® & News

Nearby

Air Quality

  Air Quality AQ Index Pollutant
Not available.

Snow Depth

Station Depth Elevation

Earthquake Activity

City Distance Mag. Time & Date
Minimum magnitude displayed is 2.5.

Coastal Water Temperatures

Place Temperature

Stations

Nearby Weather Stations

Station Location Temp. Windchill Dew Point Humidity Wind Precip. Elev Updated Type